createdAt,value
2019-04-21T00:15:18.097Z,913.69
2019-04-21T00:16:41.554Z,913.74
2019-04-21T00:17:34.760Z,913.80
2019-04-21T00:18:40.776Z,913.78
2019-04-21T00:20:09.114Z,913.78
2019-04-21T00:21:08.276Z,913.78
2019-04-21T00:22:34.290Z,913.82
2019-04-21T00:24:01.393Z,913.80
2019-04-21T00:25:23.549Z,913.88
2019-04-21T00:26:30.285Z,913.90
2019-04-21T00:27:51.619Z,913.92
2019-04-21T00:29:26.788Z,913.98
2019-04-21T00:30:21.340Z,914.00
2019-04-21T00:31:22.387Z,913.96
2019-04-21T00:32:35.262Z,913.94
2019-04-21T00:33:31.323Z,913.95
2019-04-21T00:34:56.315Z,913.94
2019-04-21T00:36:20.838Z,913.88
2019-04-21T00:38:00.615Z,913.89
2019-04-21T00:39:18.698Z,913.82
2019-04-21T00:40:28.608Z,913.85
2019-04-21T00:41:50.849Z,913.77
2019-04-21T00:43:13.693Z,913.70
2019-04-21T00:44:29.853Z,913.82
2019-04-21T00:45:55.654Z,913.66
2019-04-21T00:47:30.610Z,913.66
2019-04-21T00:48:55.119Z,913.61
2019-04-21T00:50:20.557Z,913.60
2019-04-21T00:51:53.912Z,913.54
2019-04-21T00:52:52.594Z,913.47
2019-04-21T00:53:51.888Z,913.47
2019-04-21T00:55:21.815Z,913.50
2019-04-21T00:56:18.233Z,913.48
2019-04-21T00:57:11.486Z,913.48
2019-04-21T00:58:35.934Z,913.39
2019-04-21T01:00:01.266Z,913.45
2019-04-21T01:01:59.963Z,913.34
2019-04-21T01:03:26.527Z,913.47
2019-04-21T01:04:51.420Z,913.45
2019-04-21T01:06:17.499Z,913.33
2019-04-21T01:07:12.453Z,913.31
2019-04-21T01:08:35.729Z,913.35
2019-04-21T01:09:34.304Z,913.32
2019-04-21T01:10:54.156Z,913.30
2019-04-21T01:12:01.291Z,913.28
2019-04-21T01:13:38.809Z,913.31
2019-04-21T01:14:35.823Z,913.31
2019-04-21T01:15:53.331Z,913.25
2019-04-21T01:16:57.946Z,913.29
2019-04-21T01:17:52.175Z,913.27
2019-04-21T01:19:17.338Z,913.27
2019-04-21T01:20:20.700Z,913.25
2019-04-21T01:21:20.690Z,913.24
2019-04-21T01:22:20.683Z,913.23
2019-04-21T01:23:21.389Z,913.21
2019-04-21T01:24:28.867Z,913.22
2019-04-21T01:26:00.630Z,913.16
2019-04-21T01:27:20.099Z,913.11
2019-04-21T01:28:52.847Z,913.09
2019-04-21T01:30:24.928Z,913.12
2019-04-21T01:31:17.426Z,913.04
2019-04-21T01:32:51.294Z,913.03
2019-04-21T01:34:12.679Z,912.97
2019-04-21T01:35:36.666Z,912.95
2019-04-21T01:36:59.886Z,912.95
2019-04-21T01:38:32.751Z,912.91
2019-04-21T01:39:53.239Z,912.95
2019-04-21T01:40:53.145Z,912.96
2019-04-21T01:41:50.981Z,912.95
2019-04-21T01:43:14.848Z,912.93
2019-04-21T01:44:43.075Z,913.01
2019-04-21T01:45:37.686Z,913.01
2019-04-21T01:46:58.431Z,913.11
2019-04-21T01:48:24.116Z,913.15
2019-04-21T01:49:43.241Z,913.29
2019-04-21T01:51:14.269Z,913.38
2019-04-21T01:52:51.446Z,913.65
2019-04-21T01:53:44.811Z,913.77
2019-04-21T01:55:08.107Z,914.19
2019-04-21T01:56:34.280Z,914.50
2019-04-21T01:57:54.043Z,914.75
2019-04-21T01:58:49.989Z,914.76
2019-04-21T02:00:13.362Z,914.90
2019-04-21T02:01:49.063Z,914.95
2019-04-21T02:03:28.179Z,914.93
2019-04-21T02:04:13.954Z,915.22
2019-04-21T02:05:21.246Z,915.34
2019-04-21T02:06:33.597Z,915.25
2019-04-21T02:08:02.567Z,915.27
2019-04-21T02:09:22.927Z,915.19
2019-04-21T02:10:54.692Z,915.11
2019-04-21T02:12:22.096Z,915.41
2019-04-21T02:13:11.846Z,915.20
2019-04-21T02:14:46.327Z,915.36
2019-04-21T02:16:06.522Z,915.15
2019-04-21T02:17:10.331Z,915.30
2019-04-21T02:18:27.621Z,915.65
2019-04-21T02:19:50.383Z,915.98
2019-04-21T02:20:47.622Z,916.16
2019-04-21T02:22:21.413Z,916.40
2019-04-21T02:23:34.424Z,916.49
2019-04-21T02:24:33.278Z,916.44
2019-04-21T02:25:21.806Z,916.68
2019-04-21T02:26:49.030Z,916.70
2019-04-21T02:28:12.326Z,916.80
2019-04-21T02:29:41.180Z,916.68
2019-04-21T02:30:56.522Z,916.83
2019-04-21T02:31:49.904Z,916.82
2019-04-21T02:32:47.992Z,916.81
2019-04-21T02:34:06.513Z,916.78
2019-04-21T02:36:40.254Z,916.56
2019-04-21T02:37:44.567Z,916.68
2019-04-21T02:38:42.286Z,916.51
2019-04-21T02:42:32.451Z,916.91
2019-04-21T02:43:25.585Z,916.97
2019-04-21T02:44:27.550Z,916.95
2019-04-21T02:45:34.631Z,916.47
2019-04-21T02:46:31.337Z,916.74
2019-04-21T02:47:36.954Z,916.84
2019-04-21T02:48:27.900Z,916.71
2019-04-21T02:49:38.188Z,916.50
2019-04-21T02:50:28.212Z,916.58
2019-04-21T02:51:27.968Z,916.47
2019-04-21T02:52:53.892Z,915.96
2019-04-21T02:54:24.999Z,916.18
2019-04-21T02:56:20.421Z,917.42
2019-04-21T02:58:20.789Z,916.35
2019-04-21T02:59:44.229Z,916.36
2019-04-21T03:00:34.583Z,916.14
2019-04-21T03:02:04.107Z,915.96
2019-04-21T03:03:07.002Z,915.97
2019-04-21T03:04:04.944Z,915.98
2019-04-21T03:09:29.675Z,915.55
2019-04-21T03:11:44.857Z,915.74
2019-04-21T03:13:14.074Z,915.85
2019-04-21T03:14:16.477Z,915.53
2019-04-21T03:16:26.513Z,915.29
2019-04-21T03:18:08.237Z,915.48
2019-04-21T03:19:00.241Z,915.34
2019-04-21T03:20:27.413Z,915.43
2019-04-21T03:21:20.459Z,915.15
2019-04-21T03:22:25.002Z,915.29
2019-04-21T03:25:20.476Z,915.08
2019-04-21T03:25:52.227Z,915.35
2019-04-21T03:28:13.993Z,915.55
2019-04-21T03:29:19.655Z,915.46
2019-04-21T03:30:32.741Z,915.58
2019-04-21T03:31:42.456Z,915.41
2019-04-21T03:35:34.527Z,915.28
2019-04-21T03:36:37.974Z,915.27
2019-04-21T03:37:11.371Z,915.56
2019-04-21T03:38:05.357Z,915.58
2019-04-21T03:38:53.316Z,915.73
2019-04-21T03:40:22.230Z,915.78
2019-04-21T03:42:00.225Z,916.03
2019-04-21T03:42:47.743Z,915.62
2019-04-21T03:44:16.962Z,915.97
2019-04-21T03:46:01.570Z,915.39
2019-04-21T03:46:41.281Z,915.68
2019-04-21T03:48:07.973Z,915.86
2019-04-21T03:49:11.964Z,915.61
2019-04-21T03:51:25.977Z,915.97
2019-04-21T03:52:45.545Z,916.00
2019-04-21T03:54:57.778Z,915.83
2019-04-21T03:57:38.583Z,916.25
2019-04-21T03:59:45.521Z,916.00
2019-04-21T04:02:45.537Z,915.73
2019-04-21T04:05:04.578Z,915.61
2019-04-21T04:10:13.882Z,915.75
2019-04-21T04:11:29.471Z,915.81
2019-04-21T04:12:12.599Z,915.83
2019-04-21T04:13:20.465Z,915.84
2019-04-21T04:14:32.709Z,915.84
2019-04-21T04:15:13.779Z,915.84
2019-04-21T04:16:37.467Z,915.89
2019-04-21T04:17:40.818Z,915.86
2019-04-21T04:18:46.680Z,915.91
2019-04-21T04:20:03.960Z,915.91
2019-04-21T04:21:20.685Z,915.87
2019-04-21T04:22:20.898Z,915.97
2019-04-21T04:23:02.814Z,915.99
2019-04-21T04:25:49.366Z,915.88
2019-04-21T04:27:35.187Z,915.92
2019-04-21T04:28:18.931Z,915.85
2019-04-21T04:29:20.354Z,915.83
2019-04-21T04:31:52.895Z,915.86
2019-04-21T04:34:14.651Z,915.95
2019-04-21T04:36:46.674Z,915.92
2019-04-21T04:37:59.124Z,915.90
2019-04-21T04:39:59.946Z,915.87
2019-04-21T04:40:57.518Z,915.76
2019-04-21T04:42:43.293Z,915.74
2019-04-21T04:43:30.467Z,915.67
2019-04-21T04:45:48.258Z,915.69
2019-04-21T04:48:13.487Z,915.64
2019-04-21T04:49:25.236Z,915.65
2019-04-21T04:50:06.792Z,915.66
2019-04-21T04:51:51.645Z,915.63
2019-04-21T04:54:21.798Z,915.76
2019-04-21T04:55:03.476Z,915.72
2019-04-21T05:00:18.137Z,915.75
2019-04-21T05:01:21.655Z,915.76
2019-04-21T05:05:14.858Z,915.87
2019-04-21T05:06:12.007Z,915.87
2019-04-21T05:07:07.113Z,915.95
2019-04-21T05:08:08.532Z,915.95
2019-04-21T05:09:10.934Z,915.92
2019-04-21T05:09:59.638Z,915.92
2019-04-21T05:11:23.413Z,915.89
2019-04-21T05:12:17.550Z,915.88
2019-04-21T05:13:13.288Z,915.90
2019-04-21T05:14:11.612Z,915.85
2019-04-21T05:19:04.258Z,915.83
2019-04-21T05:20:08.727Z,915.75
2019-04-21T05:20:52.204Z,915.76
2019-04-21T05:21:46.651Z,915.73
2019-04-21T05:22:47.655Z,915.73
2019-04-21T05:24:08.126Z,915.78
2019-04-21T05:25:05.691Z,915.81
2019-04-21T05:26:27.498Z,915.87
2019-04-21T05:27:54.661Z,915.86
2019-04-21T05:29:15.866Z,915.88
2019-04-21T05:30:30.742Z,915.89
2019-04-21T05:31:50.953Z,915.95
2019-04-21T05:33:24.469Z,915.96
2019-04-21T05:34:39.056Z,915.92
2019-04-21T05:35:14.110Z,915.95
2019-04-21T05:36:38.225Z,915.98
2019-04-21T05:38:00.100Z,916.04
2019-04-21T05:39:27.432Z,916.08
2019-04-21T05:40:24.911Z,916.08
2019-04-21T05:41:41.235Z,916.14
2019-04-21T05:43:18.728Z,916.15
2019-04-21T05:44:51.594Z,916.21
2019-04-21T05:45:40.563Z,916.26
2019-04-21T05:47:15.931Z,916.24
2019-04-21T05:48:35.103Z,916.32
2019-04-21T05:49:32.711Z,916.28
2019-04-21T05:50:50.841Z,916.29
2019-04-21T05:52:21.527Z,916.26
2019-04-21T05:53:52.082Z,916.20
2019-04-21T05:54:57.863Z,916.19
2019-04-21T05:55:54.569Z,916.20
2019-04-21T05:56:48.824Z,916.17
2019-04-21T05:58:09.715Z,916.13
2019-04-21T05:59:37.903Z,916.16
2019-04-21T06:01:06.349Z,916.17
2019-04-21T06:01:39.428Z,916.20
2019-04-21T06:02:35.454Z,916.25
2019-04-21T06:04:07.630Z,916.35
2019-04-21T06:05:14.139Z,916.44
2019-04-21T06:06:10.387Z,916.51
2019-04-21T06:07:28.795Z,916.64
2019-04-21T06:08:28.627Z,916.71
2019-04-21T06:09:58.643Z,916.74
2019-04-21T06:10:52.476Z,916.65
2019-04-21T06:11:53.826Z,916.59
2019-04-21T06:13:22.097Z,916.37
2019-04-21T06:14:43.904Z,916.07
2019-04-21T06:16:23.227Z,916.10
2019-04-21T06:17:15.343Z,916.13
2019-04-21T06:18:35.351Z,916.19
2019-04-21T06:19:57.306Z,916.11
2019-04-21T06:21:16.153Z,916.03
2019-04-21T06:22:19.556Z,915.96
2019-04-21T06:23:42.375Z,915.87
2019-04-21T06:25:35.897Z,915.70
2019-04-21T06:26:46.893Z,915.66
2019-04-21T06:27:22.907Z,915.60
2019-04-21T06:28:12.013Z,915.60
2019-04-21T06:29:36.179Z,915.68
2019-04-21T06:31:29.269Z,915.79
2019-04-21T06:33:27.461Z,915.89
2019-04-21T06:35:07.333Z,916.13
2019-04-21T06:36:12.681Z,916.25
2019-04-21T06:38:28.376Z,916.74
2019-04-21T06:39:54.170Z,916.84
2019-04-21T06:40:42.261Z,917.05
2019-04-21T06:42:07.720Z,917.39
2019-04-21T06:43:36.644Z,917.64
2019-04-21T06:44:32.069Z,917.79
2019-04-21T06:45:37.787Z,917.88
2019-04-21T06:46:40.790Z,917.92
2019-04-21T06:47:39.118Z,917.96
2019-04-21T06:48:58.357Z,918.24
2019-04-21T06:49:58.990Z,918.16
2019-04-21T06:51:03.170Z,918.08
2019-04-21T06:51:55.481Z,918.10
2019-04-21T06:52:53.865Z,918.18
2019-04-21T06:54:00.770Z,918.15
2019-04-21T06:55:19.918Z,918.17
2019-04-21T06:56:27.456Z,918.21
2019-04-21T06:57:56.117Z,918.21
2019-04-21T06:58:46.354Z,918.21
2019-04-21T07:00:07.449Z,918.20
2019-04-21T07:01:10.158Z,918.13
2019-04-21T07:05:26.215Z,918.28
2019-04-21T07:08:11.303Z,918.51
2019-04-21T07:10:37.124Z,918.47
2019-04-21T07:11:38.161Z,918.49
2019-04-21T07:12:59.279Z,918.58
2019-04-21T07:15:58.814Z,918.67
2019-04-21T07:17:28.124Z,918.64
2019-04-21T07:18:31.052Z,918.59
2019-04-21T07:19:55.416Z,918.47
2019-04-21T07:20:54.923Z,918.39
2019-04-21T07:22:23.039Z,918.32
2019-04-21T07:23:16.317Z,918.18
2019-04-21T07:25:00.153Z,918.08
2019-04-21T07:25:49.637Z,918.09
2019-04-21T07:26:45.899Z,918.06
2019-04-21T07:28:49.900Z,918.13
2019-04-21T07:30:04.249Z,918.14
2019-04-21T07:31:31.904Z,918.22
2019-04-21T07:32:34.818Z,918.10
2019-04-21T07:33:52.383Z,918.13
2019-04-21T07:35:00.642Z,918.17
2019-04-21T07:35:55.774Z,918.24
2019-04-21T07:37:17.381Z,918.32
2019-04-21T07:38:41.285Z,918.32
2019-04-21T07:40:07.801Z,918.33
2019-04-21T07:41:25.069Z,918.29
2019-04-21T07:42:51.162Z,918.25
2019-04-21T07:44:19.566Z,918.24
2019-04-21T07:45:40.807Z,918.31
2019-04-21T07:47:09.721Z,918.35
2019-04-21T07:48:40.158Z,918.41
2019-04-21T07:50:00.652Z,918.37
2019-04-21T07:51:04.000Z,918.40
2019-04-21T07:52:33.478Z,918.39
2019-04-21T07:53:55.330Z,918.37
2019-04-21T07:56:06.511Z,918.53
2019-04-21T07:57:39.109Z,918.53
2019-04-21T07:58:47.745Z,918.51
2019-04-21T08:00:21.365Z,918.47
2019-04-21T08:01:15.921Z,918.46
2019-04-21T08:02:15.986Z,918.45
2019-04-21T08:03:07.923Z,918.43
2019-04-21T08:04:08.434Z,918.41
2019-04-21T08:05:33.961Z,918.48
2019-04-21T08:06:34.969Z,918.52
2019-04-21T08:09:20.867Z,918.61
2019-04-21T08:10:45.517Z,918.54
2019-04-21T08:12:04.020Z,918.40
2019-04-21T08:13:09.886Z,918.36
2019-04-21T08:14:35.510Z,918.38
2019-04-21T08:15:39.537Z,918.41
2019-04-21T08:16:39.733Z,918.44
2019-04-21T08:17:59.695Z,918.41
2019-04-21T08:19:05.371Z,918.33
2019-04-21T08:20:24.011Z,918.32
2019-04-21T08:21:29.924Z,918.26
2019-04-21T08:22:52.804Z,918.24
2019-04-21T08:24:14.447Z,918.16
2019-04-21T08:25:47.676Z,918.07
2019-04-21T08:27:04.976Z,917.92
2019-04-21T08:28:33.811Z,917.77
2019-04-21T08:29:33.075Z,917.66
2019-04-21T08:30:32.259Z,917.62
2019-04-21T08:31:41.690Z,917.42
2019-04-21T08:34:25.505Z,917.42
2019-04-21T08:36:40.272Z,917.46
2019-04-21T08:38:08.537Z,917.53
2019-04-21T08:39:45.563Z,917.48
2019-04-21T08:41:05.146Z,917.49
2019-04-21T08:41:59.003Z,917.55
2019-04-21T08:43:32.040Z,917.53
2019-04-21T08:44:48.736Z,917.45
2019-04-21T08:45:48.154Z,917.50
2019-04-21T08:47:15.413Z,917.35
2019-04-21T08:48:39.939Z,917.32
2019-04-21T08:50:03.431Z,917.34
2019-04-21T08:51:33.305Z,917.33
2019-04-21T08:53:55.085Z,917.41
2019-04-21T08:54:55.784Z,917.31
2019-04-21T08:56:18.450Z,917.39
2019-04-21T08:57:51.015Z,917.38
2019-04-21T08:59:12.793Z,917.21
2019-04-21T09:00:16.367Z,917.23
2019-04-21T09:01:10.586Z,917.27
2019-04-21T09:02:37.312Z,917.26
2019-04-21T09:03:28.575Z,917.12
2019-04-21T09:04:52.700Z,917.36
2019-04-21T09:06:00.080Z,917.34
2019-04-21T09:07:26.927Z,917.12
2019-04-21T09:08:21.635Z,917.11
2019-04-21T09:09:47.676Z,917.09
2019-04-21T09:11:47.587Z,917.15
2019-04-21T09:12:43.118Z,917.23
2019-04-21T09:14:07.090Z,917.23
2019-04-21T09:15:31.026Z,917.37
2019-04-21T09:16:53.694Z,917.39
2019-04-21T09:18:18.870Z,917.46
2019-04-21T09:21:13.539Z,917.60
2019-04-21T09:22:37.384Z,917.58
2019-04-21T09:24:07.463Z,917.49
2019-04-21T09:25:01.647Z,917.50
2019-04-21T09:26:28.315Z,917.58
2019-04-21T09:27:47.123Z,917.53
2019-04-21T09:29:09.287Z,917.54
2019-04-21T09:30:23.972Z,917.56
2019-04-21T09:31:25.981Z,917.53
2019-04-21T09:32:51.667Z,917.54
2019-04-21T09:33:51.883Z,917.52
2019-04-21T09:35:14.786Z,917.58
2019-04-21T09:36:15.450Z,917.63
2019-04-21T09:37:44.404Z,917.65
2019-04-21T09:39:09.404Z,917.66
2019-04-21T09:40:33.922Z,917.62
2019-04-21T09:41:54.421Z,917.62
2019-04-21T09:43:27.284Z,917.64
2019-04-21T09:44:44.397Z,917.65
2019-04-21T09:45:41.337Z,917.65
2019-04-21T09:46:49.747Z,917.61
2019-04-21T09:48:11.773Z,917.46
2019-04-21T09:49:33.210Z,917.49
2019-04-21T09:50:31.831Z,917.43
2019-04-21T09:51:30.910Z,917.40
2019-04-21T09:52:39.648Z,917.33
2019-04-21T09:53:36.571Z,917.40
2019-04-21T09:55:04.206Z,917.35
2019-04-21T09:56:31.262Z,917.29
2019-04-21T09:57:52.173Z,917.36
2019-04-21T09:59:17.988Z,917.41
2019-04-21T10:00:47.531Z,917.31
2019-04-21T10:02:08.447Z,917.28
2019-04-21T10:03:24.651Z,917.33
2019-04-21T10:04:24.739Z,917.27
2019-04-21T10:05:25.156Z,917.26
2019-04-21T10:06:25.944Z,917.24
2019-04-21T10:07:31.927Z,917.28
2019-04-21T10:08:56.602Z,917.31
2019-04-21T10:10:14.897Z,917.29
2019-04-21T10:11:14.300Z,917.26
2019-04-21T10:12:14.360Z,917.18
2019-04-21T10:13:15.066Z,917.16
2019-04-21T10:14:14.267Z,917.17
2019-04-21T10:15:14.404Z,917.15
2019-04-21T10:16:15.189Z,917.07
2019-04-21T10:17:15.094Z,917.07
2019-04-21T10:18:15.147Z,917.10
2019-04-21T10:19:15.307Z,917.07
2019-04-21T10:20:14.199Z,917.07
2019-04-21T10:21:15.326Z,917.09
2019-04-21T10:22:14.862Z,917.07
2019-04-21T10:23:15.524Z,917.07
2019-04-21T10:24:14.156Z,917.02
2019-04-21T10:25:14.554Z,917.03
2019-04-21T10:26:14.620Z,917.04
2019-04-21T10:27:14.786Z,917.08
2019-04-21T10:28:14.997Z,917.09
2019-04-21T10:29:21.755Z,917.07
2019-04-21T10:30:38.900Z,917.00
2019-04-21T10:31:38.896Z,916.93
2019-04-21T10:32:39.032Z,916.91
2019-04-21T10:33:39.959Z,916.86
2019-04-21T10:34:39.109Z,916.80
2019-04-21T10:35:39.399Z,916.77
2019-04-21T10:36:38.840Z,916.84
2019-04-21T10:37:50.792Z,916.82
2019-04-21T10:38:44.784Z,916.86
2019-04-21T10:40:03.641Z,916.79
2019-04-21T10:41:03.604Z,916.86
2019-04-21T10:42:03.640Z,916.88
2019-04-21T10:43:03.895Z,916.92
2019-04-21T10:44:04.980Z,916.98
2019-04-21T10:45:03.626Z,916.96
2019-04-21T10:46:04.473Z,917.02
2019-04-21T10:47:04.688Z,916.98
2019-04-21T10:48:05.048Z,916.97
2019-04-21T10:49:04.405Z,916.90
2019-04-21T10:50:04.548Z,916.94
2019-04-21T10:51:03.494Z,916.83
2019-04-21T10:52:04.661Z,916.85
2019-04-21T10:53:04.850Z,916.78
2019-04-21T10:54:04.074Z,916.83
2019-04-21T10:55:23.053Z,916.78
2019-04-21T10:56:15.732Z,916.81
2019-04-21T10:57:28.476Z,916.79
2019-04-21T10:58:28.579Z,916.75
2019-04-21T10:59:29.050Z,916.71
2019-04-21T11:00:28.218Z,916.65
2019-04-21T11:01:29.366Z,916.61
2019-04-21T11:02:28.837Z,916.56
2019-04-21T11:03:29.128Z,916.59
2019-04-21T11:04:34.578Z,916.66
2019-04-21T11:05:52.970Z,916.74
2019-04-21T11:06:59.411Z,916.73
2019-04-21T11:08:24.627Z,916.77
2019-04-21T11:09:42.562Z,916.71
2019-04-21T11:10:43.707Z,916.68
2019-04-21T11:11:45.031Z,916.64
2019-04-21T11:12:43.221Z,916.62
2019-04-21T11:13:42.519Z,916.59
2019-04-21T11:14:43.105Z,916.59
2019-04-21T11:15:43.207Z,916.51
2019-04-21T11:16:43.059Z,916.50
2019-04-21T11:17:43.875Z,916.49
2019-04-21T11:18:44.018Z,916.48
2019-04-21T11:19:43.130Z,916.52
2019-04-21T11:20:42.804Z,916.52
2019-04-21T11:21:42.915Z,916.56
2019-04-21T11:22:43.806Z,916.62
2019-04-21T11:23:43.743Z,916.68
2019-04-21T11:24:42.997Z,916.67
2019-04-21T11:25:42.386Z,916.72
2019-04-21T11:26:42.380Z,916.72
2019-04-21T11:27:42.895Z,916.68
2019-04-21T11:28:43.102Z,916.69
2019-04-21T11:29:43.281Z,916.65
2019-04-21T11:30:42.525Z,916.61
2019-04-21T11:31:43.120Z,916.63
2019-04-21T11:32:44.913Z,916.54
2019-04-21T11:33:43.010Z,916.55
2019-04-21T11:34:43.156Z,916.57
2019-04-21T11:35:43.457Z,916.52
2019-04-21T11:36:42.372Z,916.50
2019-04-21T11:37:42.263Z,916.53
2019-04-21T11:38:58.138Z,916.50
2019-04-21T11:40:12.664Z,916.64
2019-04-21T11:41:31.945Z,916.64
2019-04-21T11:42:33.438Z,916.67
2019-04-21T11:43:32.933Z,916.71
2019-04-21T11:44:33.033Z,916.69
2019-04-21T11:45:32.678Z,916.67
2019-04-21T11:46:31.794Z,916.63
2019-04-21T11:47:32.363Z,916.63
2019-04-21T11:48:32.507Z,916.60
2019-04-21T11:49:32.569Z,916.60
2019-04-21T11:50:32.886Z,916.60
2019-04-21T11:51:33.159Z,916.56
2019-04-21T11:52:32.588Z,916.59
2019-04-21T11:53:32.901Z,916.56
2019-04-21T11:54:32.836Z,916.58
2019-04-21T11:55:36.444Z,916.59
2019-04-21T11:56:56.939Z,916.61
2019-04-21T11:57:56.580Z,916.62
2019-04-21T11:58:57.814Z,916.64
2019-04-21T11:59:57.600Z,916.64
2019-04-21T12:00:57.826Z,916.66
2019-04-21T12:01:57.276Z,916.65
2019-04-21T12:02:57.504Z,916.66
2019-04-21T12:03:57.838Z,916.65
2019-04-21T12:04:57.233Z,916.68
2019-04-21T12:05:57.337Z,916.69
2019-04-21T12:06:57.928Z,916.73
2019-04-21T12:07:58.452Z,916.85
2019-04-21T12:08:59.306Z,916.83
2019-04-21T12:09:57.538Z,916.85
2019-04-21T12:10:57.643Z,916.75
2019-04-21T12:11:57.044Z,916.71
2019-04-21T12:12:57.139Z,916.70
2019-04-21T12:13:56.369Z,916.64
2019-04-21T12:14:57.572Z,916.80
2019-04-21T12:15:57.147Z,916.77
2019-04-21T12:16:57.200Z,916.81
2019-04-21T12:17:56.477Z,916.78
2019-04-21T12:18:56.782Z,916.80
2019-04-21T12:19:56.951Z,916.78
2019-04-21T12:20:57.552Z,916.82
2019-04-21T12:22:05.103Z,916.74
2019-04-21T12:23:22.567Z,916.72
2019-04-21T12:24:21.554Z,916.72
2019-04-21T12:25:21.160Z,916.71
2019-04-21T12:26:22.155Z,916.78
2019-04-21T12:27:22.284Z,916.82
2019-04-21T12:28:21.873Z,916.86
2019-04-21T12:29:21.166Z,916.88
2019-04-21T12:30:21.835Z,916.86
2019-04-21T12:31:21.247Z,916.85
2019-04-21T12:32:22.197Z,916.89
2019-04-21T12:33:22.346Z,916.89
2019-04-21T12:34:21.892Z,916.94
2019-04-21T12:35:21.837Z,916.93
2019-04-21T12:36:21.968Z,916.93
2019-04-21T12:37:22.668Z,916.87
2019-04-21T12:38:32.142Z,916.88
2019-04-21T12:39:46.022Z,916.87
2019-04-21T12:40:46.547Z,916.86
2019-04-21T12:41:46.684Z,916.91
2019-04-21T12:42:45.993Z,916.90
2019-04-21T12:43:46.613Z,916.92
2019-04-21T12:44:47.437Z,916.94
2019-04-21T12:45:46.115Z,916.97
2019-04-21T12:46:45.945Z,916.94
2019-04-21T12:47:48.403Z,916.97
2019-04-21T12:48:46.230Z,917.03
2019-04-21T12:49:46.015Z,917.04
2019-04-21T12:50:45.909Z,917.02
2019-04-21T12:51:46.160Z,917.03
2019-04-21T12:52:45.886Z,916.96
2019-04-21T12:53:45.867Z,916.98
2019-04-21T12:54:46.010Z,916.94
2019-04-21T12:55:46.668Z,916.93
2019-04-21T12:56:45.849Z,916.89
2019-04-21T12:57:45.825Z,916.90
2019-04-21T12:58:47.025Z,916.91
2019-04-21T12:59:46.668Z,916.90
2019-04-21T13:00:47.063Z,916.89
2019-04-21T13:01:45.784Z,916.91
2019-04-21T13:02:45.775Z,916.92
2019-04-21T13:03:45.948Z,916.94
2019-04-21T13:04:46.144Z,916.94
2019-04-21T13:05:45.745Z,917.02
2019-04-21T13:06:45.892Z,917.00
2019-04-21T13:07:45.759Z,916.98
2019-04-21T13:08:54.526Z,917.01
2019-04-21T13:10:10.609Z,917.09
2019-04-21T13:11:11.529Z,917.13
2019-04-21T13:12:11.067Z,917.15
2019-04-21T13:13:10.482Z,917.16
2019-04-21T13:14:11.581Z,917.14
2019-04-21T13:15:10.865Z,917.14
2019-04-21T13:16:11.602Z,917.20
2019-04-21T13:17:10.588Z,917.22
2019-04-21T13:18:10.430Z,917.24
2019-04-21T13:19:11.441Z,917.26
2019-04-21T13:20:11.596Z,917.23
2019-04-21T13:21:10.429Z,917.22
2019-04-21T13:22:10.439Z,917.21
2019-04-21T13:23:10.375Z,917.17
2019-04-21T13:24:11.521Z,917.16
2019-04-21T13:25:11.750Z,917.11
2019-04-21T13:26:11.389Z,917.11
2019-04-21T13:27:12.381Z,917.09
2019-04-21T13:28:10.587Z,917.18
2019-04-21T13:29:10.396Z,917.11
2019-04-21T13:30:10.550Z,917.18
2019-04-21T13:31:10.290Z,917.21
2019-04-21T13:32:10.785Z,917.25
2019-04-21T13:33:11.301Z,917.26
2019-04-21T13:34:10.626Z,917.29
2019-04-21T13:35:10.809Z,917.30
2019-04-21T13:36:11.646Z,917.32
2019-04-21T13:37:11.574Z,917.32
2019-04-21T13:38:20.053Z,917.34
2019-04-21T13:40:06.569Z,917.34
2019-04-21T13:40:53.408Z,917.33
2019-04-21T13:42:07.586Z,917.38
2019-04-21T13:43:25.208Z,917.36
2019-04-21T13:44:24.871Z,917.37
2019-04-21T13:45:25.937Z,917.37
2019-04-21T13:46:24.968Z,917.38
2019-04-21T13:47:24.975Z,917.41
2019-04-21T13:48:24.666Z,917.38
2019-04-21T13:49:25.346Z,917.41
2019-04-21T13:50:25.607Z,917.41
2019-04-21T13:51:25.062Z,917.38
2019-04-21T13:52:24.749Z,917.37
2019-04-21T13:53:25.032Z,917.36
2019-04-21T13:54:25.464Z,917.42
2019-04-21T13:55:25.559Z,917.45
2019-04-21T13:56:24.794Z,917.42
2019-04-21T13:57:24.569Z,917.50
2019-04-21T13:58:24.557Z,917.52
2019-04-21T13:59:24.567Z,917.55
2019-04-21T14:00:24.585Z,917.58
2019-04-21T14:01:25.589Z,917.56
2019-04-21T14:02:24.782Z,917.60
2019-04-21T14:03:26.313Z,917.57
2019-04-21T14:04:25.307Z,917.57
2019-04-21T14:05:24.585Z,917.60
2019-04-21T14:06:24.703Z,917.59
2019-04-21T14:07:26.034Z,917.63
2019-04-21T14:08:25.285Z,917.60
2019-04-21T14:09:35.960Z,917.63
2019-04-21T14:10:49.427Z,917.61
2019-04-21T14:11:52.141Z,917.58
2019-04-21T14:12:50.588Z,917.58
2019-04-21T14:13:50.459Z,917.58
2019-04-21T14:14:50.369Z,917.57
2019-04-21T14:15:51.429Z,917.62
2019-04-21T14:16:49.948Z,917.62
2019-04-21T14:17:49.216Z,917.61
2019-04-21T14:18:49.626Z,917.71
2019-04-21T14:19:49.141Z,917.70
2019-04-21T14:20:49.269Z,917.68
2019-04-21T14:21:51.233Z,917.70
2019-04-21T14:22:49.667Z,917.68
2019-04-21T14:23:52.441Z,917.67
2019-04-21T14:24:49.924Z,917.62
2019-04-21T14:25:50.076Z,917.63
2019-04-21T14:26:50.169Z,917.61
2019-04-21T14:27:51.672Z,917.64
2019-04-21T14:28:49.297Z,917.62
2019-04-21T14:29:49.338Z,917.64
2019-04-21T14:30:50.356Z,917.62
2019-04-21T14:31:50.450Z,917.62
2019-04-21T14:32:49.918Z,917.67
2019-04-21T14:33:50.053Z,917.63
2019-04-21T14:34:50.706Z,917.64
2019-04-21T14:35:50.504Z,917.60
2019-04-21T14:36:48.957Z,917.61
2019-04-21T14:37:48.945Z,917.61
2019-04-21T14:38:50.307Z,917.58
2019-04-21T14:39:57.819Z,917.61
2019-04-21T14:41:14.627Z,917.74
2019-04-21T14:42:14.123Z,917.72
2019-04-21T14:43:14.246Z,917.82
2019-04-21T14:44:15.148Z,917.90
2019-04-21T14:45:14.514Z,917.92
2019-04-21T14:46:13.670Z,917.88
2019-04-21T14:47:13.662Z,917.90
2019-04-21T14:48:14.772Z,917.96
2019-04-21T14:49:15.141Z,917.98
2019-04-21T14:50:15.445Z,917.98
2019-04-21T14:51:13.617Z,917.96
2019-04-21T14:52:14.987Z,917.98
2019-04-21T14:53:13.869Z,917.98
2019-04-21T14:54:14.058Z,918.00
2019-04-21T14:55:14.372Z,917.96
2019-04-21T14:56:13.564Z,917.99
2019-04-21T14:57:13.665Z,918.01
2019-04-21T14:58:14.930Z,918.06
2019-04-21T14:59:13.532Z,918.01
2019-04-21T15:00:13.578Z,918.03
2019-04-21T15:01:13.736Z,918.01
2019-04-21T15:02:14.061Z,918.08
2019-04-21T15:03:14.107Z,918.07
2019-04-21T15:04:16.835Z,918.11
2019-04-21T15:05:13.596Z,918.06
2019-04-21T15:06:13.610Z,918.07
2019-04-21T15:07:13.515Z,918.12
2019-04-21T15:08:13.436Z,918.07
2019-04-21T15:09:13.430Z,918.11
2019-04-21T15:10:20.084Z,918.10
2019-04-21T15:11:38.280Z,918.07
2019-04-21T15:12:39.346Z,918.02
2019-04-21T15:13:39.664Z,918.03
2019-04-21T15:14:38.242Z,917.99
2019-04-21T15:15:39.378Z,918.03
2019-04-21T15:16:38.672Z,918.03
2019-04-21T15:17:38.207Z,918.00
2019-04-21T15:18:38.998Z,918.06
2019-04-21T15:19:38.411Z,918.10
2019-04-21T15:20:38.486Z,918.14
2019-04-21T15:21:38.162Z,918.20
2019-04-21T15:22:38.646Z,918.19
2019-04-21T15:23:38.325Z,918.23
2019-04-21T15:24:38.380Z,918.19
2019-04-21T15:25:38.529Z,918.14
2019-04-21T15:26:38.143Z,918.09
2019-04-21T15:27:39.067Z,918.16
2019-04-21T15:28:40.517Z,918.15
2019-04-21T15:29:38.523Z,918.26
2019-04-21T15:30:38.624Z,918.30
2019-04-21T15:31:41.695Z,918.35
2019-04-21T15:33:02.885Z,918.40
2019-04-21T15:34:03.237Z,918.47